createdAt,value
2017-07-18T08:32:36.579Z,60.3
2017-07-18T08:33:37.992Z,48.0
2017-07-18T08:36:18.626Z,47.2
2017-07-18T08:37:20.048Z,48.5
2017-07-18T08:38:41.703Z,49.6
2017-07-18T08:39:43.116Z,51.3
2017-07-18T08:40:44.529Z,49.6
2017-07-18T08:41:45.979Z,49.5
2017-07-18T08:42:47.390Z,51.3
2017-07-18T08:43:48.804Z,54.2
2017-07-18T08:44:50.298Z,49.8
2017-07-18T08:45:51.713Z,52.7
2017-07-18T08:46:53.135Z,51.3
2017-07-18T08:47:54.619Z,50.6
2017-07-18T08:48:56.030Z,50.8
2017-07-18T08:49:57.439Z,51.4
2017-07-18T08:50:59.966Z,50.6
2017-07-18T08:52:01.379Z,53.2
2017-07-18T08:53:02.844Z,47.6
2017-07-18T08:54:04.256Z,47.1
2017-07-18T08:55:05.673Z,48.1
2017-07-18T08:56:07.167Z,49.6
2017-07-18T08:57:08.575Z,47.6
2017-07-18T08:58:10.010Z,47.2
2017-07-18T08:59:11.494Z,48.0
2017-07-18T09:00:12.899Z,50.4
2017-07-18T09:01:14.311Z,48.4
2017-07-18T09:02:15.809Z,45.7
2017-07-18T09:03:17.231Z,45.8
2017-07-18T09:04:18.645Z,46.7
2017-07-18T09:05:20.129Z,45.0
2017-07-18T09:06:21.548Z,44.7
2017-07-18T09:07:23.036Z,44.5
2017-07-18T09:08:24.427Z,45.0
2017-07-18T09:09:25.891Z,46.4
2017-07-18T09:10:27.319Z,44.9
2017-07-18T09:11:28.774Z,45.4
2017-07-18T09:12:30.188Z,45.1
2017-07-18T09:13:31.650Z,44.0
2017-07-18T09:14:33.065Z,43.1
2017-07-18T09:15:34.540Z,43.6
2017-07-18T09:16:35.956Z,44.8
2017-07-18T09:17:37.362Z,44.8
2017-07-18T09:18:38.853Z,42.5
2017-07-18T09:19:40.266Z,43.1
2017-07-18T09:20:41.718Z,44.1
2017-07-18T09:21:43.171Z,42.1
2017-07-18T09:22:44.586Z,43.1
2017-07-18T09:23:46.001Z,40.8
2017-07-18T09:24:47.494Z,41.4
2017-07-18T09:25:48.911Z,42.0
2017-07-18T09:26:50.386Z,40.5
2017-07-18T09:27:51.814Z,41.8
2017-07-18T09:28:53.234Z,42.5
2017-07-18T09:29:54.694Z,43.7
2017-07-18T09:30:56.636Z,43.9
2017-07-18T09:31:58.647Z,38.4
2017-07-18T09:33:00.065Z,41.0
2017-07-18T09:34:01.502Z,41.8
2017-07-18T09:35:02.912Z,39.4
2017-07-18T09:36:04.339Z,38.7
2017-07-18T09:37:05.756Z,39.0
2017-07-18T09:38:07.567Z,41.4
2017-07-18T09:39:08.987Z,42.1
2017-07-18T09:40:10.414Z,39.5
2017-07-18T09:41:11.834Z,41.9
2017-07-18T09:42:13.638Z,38.3
2017-07-18T09:43:15.075Z,37.0
2017-07-18T09:44:16.483Z,36.7
2017-07-18T09:45:17.905Z,36.6
2017-07-18T09:46:19.333Z,38.1
2017-07-18T09:47:20.755Z,37.6
2017-07-18T09:48:22.183Z,36.3
2017-07-18T09:49:23.604Z,36.1
2017-07-18T09:50:25.034Z,35.5
2017-07-18T09:51:26.455Z,34.9
2017-07-18T09:52:27.878Z,35.7
2017-07-18T09:53:29.297Z,34.0
2017-07-18T09:54:30.772Z,32.3
2017-07-18T09:55:32.161Z,31.3
2017-07-18T09:56:33.592Z,31.9
2017-07-18T09:57:35.011Z,29.8
2017-07-18T09:58:36.436Z,31.5
2017-07-18T09:59:37.858Z,29.9
2017-07-18T10:00:39.309Z,30.2
2017-07-18T10:01:40.732Z,31.3
2017-07-18T10:02:42.154Z,31.2
2017-07-18T10:03:43.581Z,30.5
2017-07-18T10:04:45.011Z,30.0
2017-07-18T10:05:46.425Z,29.9
2017-07-18T10:06:47.849Z,31.0
2017-07-18T10:07:49.268Z,29.1
2017-07-18T10:08:50.885Z,29.6
2017-07-18T10:09:52.296Z,28.7
2017-07-18T10:10:54.100Z,29.0
2017-07-18T10:11:55.525Z,29.3
2017-07-18T10:12:57.030Z,29.0
2017-07-18T10:13:58.447Z,29.0
2017-07-18T10:15:00.252Z,28.8
2017-07-18T10:16:01.679Z,27.6
2017-07-18T10:17:03.092Z,27.4
2017-07-18T10:18:04.510Z,27.2
2017-07-18T10:19:05.922Z,29.1
2017-07-18T10:20:07.440Z,26.7
2017-07-18T10:21:08.861Z,27.3
2017-07-18T10:22:10.278Z,27.9
2017-07-18T10:23:11.743Z,27.0
2017-07-18T10:24:13.162Z,26.2
2017-07-18T10:25:14.584Z,25.6
2017-07-18T10:26:16.069Z,25.3
2017-07-18T10:27:17.490Z,26.9
2017-07-18T10:28:18.901Z,25.1
2017-07-18T10:29:20.385Z,25.1
2017-07-18T10:30:21.800Z,27.2
2017-07-18T10:31:23.219Z,25.1
2017-07-18T10:32:24.711Z,23.8
2017-07-18T10:33:26.123Z,23.8
2017-07-18T10:34:27.586Z,24.0
2017-07-18T10:35:29.011Z,25.0
2017-07-18T10:36:30.462Z,23.2
2017-07-18T10:37:31.884Z,25.1
2017-07-18T10:38:33.342Z,22.3
2017-07-18T10:39:34.759Z,20.4
2017-07-18T10:40:36.224Z,20.1
2017-07-18T10:41:37.644Z,20.3
2017-07-18T10:42:39.053Z,19.9
2017-07-18T10:43:40.542Z,19.5
2017-07-18T10:44:41.960Z,20.4
2017-07-18T10:45:43.376Z,19.9
2017-07-18T10:46:44.869Z,18.9
2017-07-18T10:47:46.299Z,18.4
2017-07-18T10:48:47.746Z,19.5
2017-07-18T10:49:49.171Z,20.3
2017-07-18T10:50:50.627Z,19.6
2017-07-18T10:51:52.052Z,20.2
2017-07-18T10:52:53.474Z,19.8
2017-07-18T10:53:54.954Z,21.4
2017-07-18T10:54:56.376Z,20.1
2017-07-18T10:55:57.794Z,20.3
2017-07-18T10:56:59.271Z,18.8
2017-07-18T10:58:00.692Z,19.9
2017-07-18T10:59:02.155Z,20.3
2017-07-18T11:00:03.572Z,20.9
2017-07-18T11:01:05.036Z,20.7
2017-07-18T11:02:06.462Z,19.3
2017-07-18T11:03:07.876Z,18.9
2017-07-18T11:04:09.355Z,18.0
2017-07-18T11:05:10.770Z,16.1
2017-07-18T11:06:12.192Z,14.7
2017-07-18T11:07:13.672Z,12.2
2017-07-18T11:08:15.098Z,12.7
2017-07-18T11:09:16.562Z,12.2
2017-07-18T11:10:17.981Z,12.4
2017-07-18T11:11:19.436Z,11.7
2017-07-18T11:12:20.856Z,9.6
2017-07-18T11:13:22.279Z,8.2
2017-07-18T11:14:23.754Z,9.0
2017-07-18T11:15:25.178Z,8.8
2017-07-18T11:16:26.603Z,8.3
2017-07-18T11:17:28.075Z,8.8
2017-07-18T11:18:29.494Z,6.6
2017-07-18T11:19:30.920Z,7.7
2017-07-18T11:20:32.396Z,6.5
2017-07-18T11:21:33.820Z,6.5
2017-07-18T11:22:35.244Z,6.8
2017-07-18T11:23:36.717Z,5.7
2017-07-18T11:24:38.140Z,5.6
2017-07-18T11:25:39.562Z,5.1
2017-07-18T11:26:41.036Z,5.0
2017-07-18T11:27:42.461Z,6.0
2017-07-18T11:28:43.881Z,6.5
2017-07-18T11:29:45.358Z,6.6
2017-07-18T11:30:46.787Z,7.6
2017-07-18T11:31:48.204Z,9.3
2017-07-18T11:32:49.682Z,9.3
2017-07-18T11:33:51.102Z,10.8
2017-07-18T11:34:52.802Z,11.2
2017-07-18T11:35:54.226Z,13.3
2017-07-18T11:36:55.653Z,12.4
2017-07-18T11:37:57.083Z,12.8
2017-07-18T11:38:58.505Z,13.5
2017-07-18T11:40:00.019Z,13.4
2017-07-18T11:41:01.442Z,15.3
2017-07-18T11:42:02.863Z,15.6
2017-07-18T11:43:04.342Z,14.5
2017-07-18T11:44:05.774Z,15.8
2017-07-18T11:45:07.196Z,15.4
2017-07-18T11:46:08.668Z,15.6
2017-07-18T11:47:10.090Z,16.5
2017-07-18T11:48:11.519Z,15.5
2017-07-18T11:49:12.986Z,15.0
2017-07-18T11:50:14.411Z,15.3
2017-07-18T11:51:15.837Z,15.7
2017-07-18T11:52:17.310Z,17.0
2017-07-18T11:53:18.732Z,15.7
2017-07-18T11:54:20.187Z,16.7
2017-07-18T11:55:21.612Z,17.0
2017-07-18T11:56:23.070Z,17.4
2017-07-18T11:57:24.494Z,16.9
2017-07-18T11:58:25.915Z,16.8
2017-07-18T11:59:27.390Z,17.4
2017-07-18T12:00:28.809Z,16.5
2017-07-18T12:01:30.227Z,17.7
2017-07-18T12:02:31.712Z,15.5
2017-07-18T12:03:33.131Z,16.1
2017-07-18T12:04:34.613Z,15.1
2017-07-18T12:05:36.037Z,15.1
2017-07-18T12:06:37.476Z,15.3
2017-07-18T12:07:38.908Z,15.1
2017-07-18T12:08:40.323Z,15.4
2017-07-18T12:09:41.800Z,14.4
2017-07-18T12:10:43.236Z,14.2
2017-07-18T12:11:44.665Z,13.9
2017-07-18T12:12:46.119Z,13.2
2017-07-18T12:13:47.545Z,14.0
2017-07-18T12:14:48.963Z,13.2
2017-07-18T12:15:50.442Z,12.4
2017-07-18T12:16:51.868Z,13.2
2017-07-18T12:17:53.279Z,12.1
2017-07-18T12:18:54.760Z,12.6
2017-07-18T12:19:56.188Z,11.8
2017-07-18T12:20:57.610Z,10.4
2017-07-18T12:21:59.087Z,11.2
2017-07-18T12:23:00.503Z,11.3
2017-07-18T12:24:01.921Z,9.4
2017-07-18T12:25:03.408Z,10.4
2017-07-18T12:26:04.830Z,9.1
2017-07-18T12:27:06.250Z,9.0
2017-07-18T12:28:07.726Z,9.0
2017-07-18T12:29:09.143Z,8.3
2017-07-18T12:30:10.633Z,8.4
2017-07-18T12:31:12.039Z,7.9
2017-07-18T12:32:13.484Z,8.4
2017-07-18T12:33:14.911Z,8.0
2017-07-18T12:34:16.329Z,8.1
2017-07-18T12:35:17.804Z,7.4
2017-07-18T12:36:19.227Z,7.7
2017-07-18T12:37:20.640Z,7.2
2017-07-18T12:38:22.140Z,7.4
2017-07-18T12:39:23.548Z,8.7
2017-07-18T12:40:24.963Z,9.5
2017-07-18T12:41:26.449Z,9.7
2017-07-18T12:42:27.865Z,11.1
2017-07-18T12:43:29.284Z,11.6
2017-07-18T12:44:30.781Z,10.6
2017-07-18T12:45:32.199Z,10.7
2017-07-18T12:46:33.615Z,10.4
2017-07-18T12:47:35.091Z,8.9
2017-07-18T12:48:36.512Z,8.9
2017-07-18T12:49:37.928Z,9.6
2017-07-18T12:50:39.414Z,8.8
2017-07-18T12:51:40.833Z,9.6
2017-07-18T12:52:42.246Z,9.9
2017-07-18T12:53:43.744Z,9.2
2017-07-18T12:54:45.151Z,9.5
2017-07-18T12:55:46.620Z,10.0
2017-07-18T12:56:48.035Z,10.5
2017-07-18T12:57:49.501Z,11.5
2017-07-18T12:58:50.928Z,12.2
2017-07-18T12:59:52.380Z,12.1
2017-07-18T13:00:53.796Z,12.6
2017-07-18T13:01:55.280Z,12.7
2017-07-18T13:02:56.700Z,12.8
2017-07-18T13:03:58.118Z,11.2
2017-07-18T13:04:59.581Z,11.0
2017-07-18T13:06:01.001Z,11.9
2017-07-18T13:07:02.420Z,14.1
2017-07-18T13:08:03.906Z,14.8
2017-07-18T13:09:05.331Z,12.1
2017-07-18T13:10:06.746Z,10.7
2017-07-18T13:11:08.225Z,11.4
2017-07-18T13:12:09.645Z,11.3
2017-07-18T13:13:11.056Z,11.3
2017-07-18T13:14:12.550Z,12.3
2017-07-18T13:15:13.965Z,14.8
2017-07-18T13:16:15.429Z,17.1
2017-07-18T13:17:16.845Z,16.7
2017-07-18T13:18:18.269Z,18.5
2017-07-18T13:19:19.684Z,18.0
2017-07-18T13:20:21.191Z,17.9
2017-07-18T13:21:22.604Z,18.6
2017-07-18T13:22:24.071Z,20.8
2017-07-18T13:23:25.486Z,19.6
2017-07-18T13:24:26.897Z,20.3
2017-07-18T13:25:28.392Z,19.8
2017-07-18T13:26:29.806Z,20.0
2017-07-18T13:27:31.215Z,20.6
2017-07-18T13:28:32.716Z,19.7
2017-07-18T13:29:34.127Z,21.4
2017-07-18T13:30:35.597Z,21.1
2017-07-18T13:31:37.008Z,23.5
2017-07-18T13:32:38.426Z,23.8
2017-07-18T13:33:39.835Z,21.4
2017-07-18T13:34:41.248Z,23.1
2017-07-18T13:35:42.808Z,22.4
2017-07-18T13:36:44.230Z,23.6
2017-07-18T13:37:46.051Z,24.4
2017-07-18T13:38:47.539Z,25.1
2017-07-18T13:39:48.951Z,22.7
2017-07-18T13:40:50.360Z,23.4
2017-07-18T13:41:51.849Z,23.7
2017-07-18T13:42:53.259Z,24.1
2017-07-18T13:43:54.674Z,24.7
2017-07-18T13:44:56.168Z,25.1
2017-07-18T13:45:57.584Z,25.5
2017-07-18T13:46:59.052Z,26.1
2017-07-18T13:48:00.459Z,25.6
2017-07-18T13:49:01.942Z,25.0
2017-07-18T13:50:03.350Z,25.0
2017-07-18T13:51:04.789Z,25.3
2017-07-18T13:52:06.198Z,26.8
2017-07-18T13:53:07.694Z,27.1
2017-07-18T13:54:09.109Z,28.7
2017-07-18T13:55:10.595Z,28.2
2017-07-18T13:56:12.006Z,29.2
2017-07-18T13:57:13.472Z,27.6
2017-07-18T13:58:15.028Z,28.5
2017-07-18T13:59:16.559Z,27.3
2017-07-18T14:00:17.972Z,27.5
2017-07-18T14:01:19.383Z,28.9
2017-07-18T14:02:20.887Z,27.0
2017-07-18T14:03:22.299Z,27.6
2017-07-18T14:04:23.709Z,28.7
2017-07-18T14:05:25.201Z,31.5
2017-07-18T14:06:26.612Z,31.5
2017-07-18T14:07:28.023Z,29.1
2017-07-18T14:08:29.522Z,30.6
2017-07-18T14:09:30.929Z,31.6
2017-07-18T14:10:32.339Z,33.3
2017-07-18T14:11:33.845Z,32.3
2017-07-18T14:12:35.248Z,31.4
2017-07-18T14:13:36.660Z,30.1
2017-07-18T14:14:38.160Z,30.9
2017-07-18T14:15:39.578Z,32.1
2017-07-18T14:16:41.040Z,29.4
2017-07-18T14:17:42.450Z,31.0
2017-07-18T14:18:43.925Z,31.2
2017-07-18T14:19:45.336Z,29.1
2017-07-18T14:20:46.817Z,28.9
2017-07-18T14:21:48.240Z,30.0
2017-07-18T14:22:49.684Z,31.0
2017-07-18T14:23:51.090Z,32.5
2017-07-18T14:24:52.566Z,34.0
2017-07-18T14:25:53.975Z,31.6
2017-07-18T14:26:55.444Z,32.0
2017-07-18T14:27:56.859Z,32.4
2017-07-18T14:28:58.326Z,31.2
2017-07-18T14:29:59.757Z,30.7
2017-07-18T14:31:01.164Z,30.0
2017-07-18T14:32:02.655Z,31.8
2017-07-18T14:33:04.064Z,32.1
2017-07-18T14:34:05.474Z,31.1
2017-07-18T14:35:06.972Z,29.8
2017-07-18T14:36:08.801Z,29.9
2017-07-18T14:37:10.259Z,30.7
2017-07-18T14:38:11.670Z,31.3
2017-07-18T14:39:13.138Z,32.4
2017-07-18T14:40:14.548Z,32.4
2017-07-18T14:41:15.958Z,32.7
2017-07-18T14:42:17.458Z,35.1
2017-07-18T14:43:18.870Z,35.5
2017-07-18T14:44:20.283Z,31.8
2017-07-18T14:45:21.798Z,32.5
2017-07-18T14:46:23.205Z,31.4
2017-07-18T14:47:24.690Z,32.8
2017-07-18T14:48:26.097Z,32.3
2017-07-18T14:49:27.550Z,32.0
2017-07-18T14:50:28.953Z,32.3
2017-07-18T14:51:30.419Z,32.3
2017-07-18T14:52:31.828Z,33.0
2017-07-18T14:53:33.302Z,32.7
2017-07-18T14:54:34.712Z,33.4
2017-07-18T14:55:36.132Z,33.2
2017-07-18T14:56:37.666Z,32.9
2017-07-18T14:57:39.078Z,32.8
2017-07-18T14:58:40.503Z,32.9
2017-07-18T14:59:41.959Z,32.3
2017-07-18T15:00:43.377Z,32.2
2017-07-18T15:01:44.821Z,32.8
2017-07-18T15:02:46.232Z,33.7
2017-07-18T15:03:47.704Z,32.9
2017-07-18T15:04:49.118Z,32.9
2017-07-18T15:05:50.585Z,34.3
2017-07-18T15:06:51.995Z,33.5
2017-07-18T15:07:53.482Z,32.7
2017-07-18T15:08:54.902Z,33.0
2017-07-18T15:09:56.346Z,32.3
2017-07-18T15:10:57.769Z,32.7
2017-07-18T15:11:59.226Z,33.7
2017-07-18T15:13:00.637Z,32.8
2017-07-18T15:14:02.110Z,32.9
2017-07-18T15:15:03.517Z,33.2
2017-07-18T15:16:04.930Z,33.4
2017-07-18T15:17:06.429Z,34.2
2017-07-18T15:18:07.844Z,33.2
2017-07-18T15:19:09.298Z,33.1
2017-07-18T15:20:10.752Z,33.8
2017-07-18T15:21:12.190Z,33.5
2017-07-18T15:22:13.597Z,33.7
2017-07-18T15:23:15.072Z,33.8
2017-07-18T15:24:16.521Z,34.4
2017-07-18T15:25:17.934Z,33.4
2017-07-18T15:26:19.392Z,33.5
2017-07-18T15:27:20.807Z,32.7
2017-07-18T15:28:22.213Z,33.0
2017-07-18T15:29:23.724Z,33.7
2017-07-18T15:30:25.130Z,34.3
2017-07-18T15:31:26.541Z,33.4
2017-07-18T15:32:28.040Z,33.8
2017-07-18T15:33:29.449Z,33.3
2017-07-18T15:34:30.917Z,33.0
2017-07-18T15:35:32.325Z,33.4
2017-07-18T15:36:33.734Z,34.0
2017-07-18T15:37:35.139Z,34.7
2017-07-18T15:38:36.550Z,34.5
2017-07-18T15:39:38.020Z,34.3
2017-07-18T15:40:39.430Z,35.3
2017-07-18T15:41:40.843Z,35.4
2017-07-18T15:42:42.338Z,35.6
2017-07-18T15:43:43.742Z,34.4
2017-07-18T15:44:45.189Z,34.7
2017-07-18T15:45:46.661Z,35.3
2017-07-18T15:46:48.071Z,35.4
2017-07-18T15:47:49.537Z,35.4
2017-07-18T15:48:50.951Z,36.1
2017-07-18T15:49:52.417Z,35.7
2017-07-18T15:50:53.826Z,35.3
2017-07-18T15:51:55.232Z,35.8
2017-07-18T15:52:56.741Z,35.4
2017-07-18T15:53:58.146Z,35.8
2017-07-18T15:54:59.576Z,35.3
2017-07-18T15:56:01.059Z,35.3
2017-07-18T15:57:02.469Z,35.1
2017-07-18T15:58:03.959Z,35.4
2017-07-18T15:59:05.348Z,35.7
2017-07-18T16:00:06.824Z,35.4
2017-07-18T16:01:08.232Z,35.4
2017-07-18T16:02:09.654Z,35.0
2017-07-18T16:03:11.146Z,35.8
2017-07-18T16:04:12.550Z,36.1
2017-07-18T16:05:13.962Z,35.6
2017-07-18T16:06:15.471Z,34.8
2017-07-18T16:07:16.884Z,35.6
2017-07-18T16:08:18.280Z,37.8
2017-07-18T16:09:19.782Z,36.5
2017-07-18T16:10:21.195Z,36.1
2017-07-18T16:11:22.601Z,36.1
2017-07-18T16:12:24.146Z,35.3
2017-07-18T16:13:25.563Z,36.2
2017-07-18T16:14:26.964Z,35.9
2017-07-18T16:15:28.423Z,35.8
2017-07-18T16:16:29.825Z,36.1
2017-07-18T16:17:31.242Z,37.0
2017-07-18T16:18:32.746Z,36.3
2017-07-18T16:19:34.157Z,36.1
2017-07-18T16:20:35.572Z,36.1
2017-07-18T16:21:37.064Z,36.3
2017-07-18T16:22:38.541Z,36.2
2017-07-18T16:23:39.966Z,36.4
2017-07-18T16:24:41.375Z,36.4
2017-07-18T16:25:42.778Z,37.0
2017-07-18T16:26:44.182Z,36.6
2017-07-18T16:27:45.622Z,36.5
2017-07-18T16:28:47.024Z,37.5
2017-07-18T16:29:48.431Z,37.1
2017-07-18T16:30:49.935Z,36.4
2017-07-18T16:31:51.656Z,36.4
2017-07-18T16:32:53.064Z,37.1
2017-07-18T16:33:54.554Z,37.5
2017-07-18T16:34:55.962Z,37.3
2017-07-18T16:35:57.369Z,37.8
2017-07-18T16:36:58.874Z,36.7
2017-07-18T16:38:00.286Z,36.6
2017-07-18T16:39:01.696Z,37.2
2017-07-18T16:40:03.203Z,37.1
2017-07-18T16:41:04.604Z,37.4
2017-07-18T16:42:06.011Z,37.5
2017-07-18T16:43:07.522Z,39.6
2017-07-18T16:44:08.979Z,37.2
2017-07-18T16:45:10.500Z,36.5
2017-07-18T16:46:11.910Z,37.1
2017-07-18T16:47:13.315Z,37.5
2017-07-18T16:48:14.821Z,37.9
2017-07-18T16:49:16.231Z,38.2
2017-07-18T16:50:17.642Z,38.2
2017-07-18T16:51:19.142Z,38.9
2017-07-18T16:52:20.551Z,38.2
2017-07-18T16:53:21.965Z,37.3
2017-07-18T16:54:23.461Z,38.1
2017-07-18T16:55:24.868Z,37.6
2017-07-18T16:56:26.276Z,38.7
2017-07-18T16:57:27.854Z,38.4
2017-07-18T16:58:29.750Z,37.7
2017-07-18T16:59:31.173Z,37.9
2017-07-18T17:00:32.616Z,37.5
2017-07-18T17:01:34.021Z,37.9
2017-07-18T17:02:35.432Z,37.8
2017-07-18T17:03:36.938Z,38.7
2017-07-18T17:04:38.355Z,38.5
2017-07-18T17:05:39.765Z,38.5
2017-07-18T17:06:41.262Z,38.4
2017-07-18T17:07:42.671Z,37.9
2017-07-18T17:08:44.144Z,38.1
2017-07-18T17:09:45.561Z,39.0
2017-07-18T17:10:47.019Z,39.7
2017-07-18T17:11:48.428Z,37.9
2017-07-18T17:12:49.838Z,38.4
2017-07-18T17:13:51.347Z,37.5
2017-07-18T17:14:52.755Z,37.5
2017-07-18T17:15:54.482Z,38.2
2017-07-18T17:16:55.990Z,38.1
2017-07-18T17:17:57.395Z,38.3
2017-07-18T17:18:58.805Z,39.2
2017-07-18T17:20:00.285Z,38.4
2017-07-18T17:21:01.700Z,38.9
2017-07-18T17:22:03.107Z,39.0
2017-07-18T17:23:04.609Z,39.2
2017-07-18T17:24:06.014Z,40.1
2017-07-18T17:25:07.491Z,38.9
2017-07-18T17:26:08.905Z,38.9
2017-07-18T17:27:10.370Z,39.5
2017-07-18T17:28:11.777Z,40.0
2017-07-18T17:29:13.250Z,38.9
2017-07-18T17:30:14.656Z,39.3
2017-07-18T17:31:16.134Z,39.8
2017-07-18T17:32:17.548Z,39.9
2017-07-18T17:33:18.952Z,39.4
2017-07-18T17:34:20.454Z,39.9
2017-07-18T17:35:21.867Z,39.4
2017-07-18T17:36:23.280Z,39.9
2017-07-18T17:37:24.880Z,39.7
2017-07-18T17:38:26.289Z,40.0
2017-07-18T17:39:27.859Z,40.4
2017-07-18T17:40:29.303Z,39.7
2017-07-18T17:41:30.713Z,40.0
2017-07-18T17:42:32.120Z,40.4
2017-07-18T17:43:33.723Z,39.7
2017-07-18T17:44:35.131Z,39.7
2017-07-18T17:45:36.805Z,40.3
2017-07-18T17:46:38.213Z,40.0
2017-07-18T17:47:39.895Z,40.3
2017-07-18T17:48:41.304Z,41.1
2017-07-18T17:49:42.985Z,39.3
2017-07-18T17:50:44.391Z,39.6
2017-07-18T17:51:46.065Z,40.1
2017-07-18T17:52:47.471Z,39.6
2017-07-18T17:53:48.873Z,39.1
2017-07-18T17:54:50.410Z,39.8
2017-07-18T17:55:51.818Z,39.6
2017-07-18T17:56:53.229Z,39.6
2017-07-18T17:57:54.932Z,40.1
2017-07-18T17:58:56.325Z,40.1
2017-07-18T17:59:57.734Z,39.7
2017-07-18T18:00:59.231Z,39.1
2017-07-18T18:02:00.650Z,39.1
2017-07-18T18:03:02.069Z,39.2
2017-07-18T18:04:03.777Z,39.5
2017-07-18T18:05:05.170Z,39.6
2017-07-18T18:06:06.845Z,39.6
2017-07-18T18:07:08.252Z,40.2
2017-07-18T18:08:09.928Z,41.7
2017-07-18T18:09:11.334Z,41.9
2017-07-18T18:10:12.809Z,40.7
2017-07-18T18:11:14.216Z,40.0
2017-07-18T18:12:16.909Z,39.4
2017-07-18T18:13:18.824Z,39.9
2017-07-18T18:14:20.228Z,39.7
2017-07-18T18:15:21.853Z,40.2
2017-07-18T18:16:23.340Z,40.3
2017-07-18T18:17:24.822Z,40.0
2017-07-18T18:18:26.286Z,40.2
2017-07-18T18:19:27.700Z,40.3
2017-07-18T18:20:29.172Z,40.6
2017-07-18T18:21:30.567Z,40.7
2017-07-18T18:22:31.973Z,40.9
2017-07-18T18:23:33.476Z,41.9
2017-07-18T18:24:34.909Z,41.1
2017-07-18T18:25:36.325Z,41.9
2017-07-18T18:26:37.801Z,41.5
2017-07-18T18:27:39.225Z,41.6
2017-07-18T18:28:40.618Z,41.1
2017-07-18T18:29:42.145Z,40.9
2017-07-18T18:30:43.554Z,41.0
2017-07-18T18:31:44.995Z,42.1
2017-07-18T18:32:46.445Z,41.9
2017-07-18T18:33:47.849Z,41.6
2017-07-18T18:34:49.257Z,41.8
2017-07-18T18:35:50.764Z,41.5
2017-07-18T18:36:52.174Z,42.0
2017-07-18T18:37:53.581Z,42.1
2017-07-18T18:38:55.085Z,42.4
2017-07-18T18:39:56.495Z,41.9
2017-07-18T18:40:57.967Z,41.9
2017-07-18T18:41:59.374Z,41.5
2017-07-18T18:43:00.849Z,41.6
2017-07-18T18:44:02.256Z,42.1
2017-07-18T18:45:03.808Z,41.4
2017-07-18T18:46:05.225Z,42.2
2017-07-18T18:47:06.714Z,41.4
2017-07-18T18:48:08.125Z,41.6
2017-07-18T18:49:09.593Z,41.7
2017-07-18T18:50:11.011Z,41.5
2017-07-18T18:51:12.475Z,42.0
2017-07-18T18:52:13.885Z,41.6
2017-07-18T18:53:15.358Z,41.6
2017-07-18T18:54:16.763Z,41.9
2017-07-18T18:55:18.233Z,42.7
2017-07-18T18:56:19.639Z,42.7
2017-07-18T18:57:21.119Z,42.8
2017-07-18T18:58:23.481Z,42.2
2017-07-18T18:59:24.753Z,41.9
2017-07-18T19:00:26.255Z,42.4
2017-07-18T19:01:27.664Z,42.3
2017-07-18T19:02:29.089Z,42.4
2017-07-18T19:03:30.575Z,43.2
2017-07-18T19:04:32.203Z,43.2
2017-07-18T19:05:33.660Z,43.0
2017-07-18T19:06:35.068Z,43.4
2017-07-18T19:07:36.539Z,43.6
2017-07-18T19:08:37.948Z,44.5
2017-07-18T19:09:39.420Z,44.4
2017-07-18T19:10:40.779Z,45.0
2017-07-18T19:11:42.300Z,45.5
2017-07-18T19:12:43.702Z,46.2
2017-07-18T19:13:45.181Z,46.3
2017-07-18T19:14:46.584Z,46.2
2017-07-18T19:15:48.062Z,46.8
2017-07-18T19:16:49.471Z,46.9
2017-07-18T19:17:50.953Z,46.2
2017-07-18T19:18:52.361Z,47.0
2017-07-18T19:19:53.771Z,46.5
2017-07-18T19:20:55.263Z,46.7
2017-07-18T19:21:56.668Z,47.7
2017-07-18T19:22:58.110Z,46.6
2017-07-18T19:23:59.583Z,47.3
2017-07-18T19:25:00.987Z,47.8
2017-07-18T19:26:02.390Z,47.9
2017-07-18T19:27:03.798Z,47.9
2017-07-18T19:28:05.209Z,48.7
2017-07-18T19:29:06.613Z,48.8
2017-07-18T19:30:08.142Z,49.5
2017-07-18T19:31:09.530Z,49.6
2017-07-18T19:32:10.954Z,50.0
2017-07-18T19:33:12.548Z,49.9
2017-07-18T19:34:13.815Z,49.6
2017-07-18T19:35:15.323Z,50.5
2017-07-18T19:36:16.730Z,51.2
2017-07-18T19:37:18.205Z,50.5
2017-07-18T19:38:19.611Z,51.1
2017-07-18T19:39:21.098Z,50.3
2017-07-18T19:40:22.512Z,50.4
2017-07-18T19:41:23.969Z,51.2
2017-07-18T19:42:25.378Z,51.3
2017-07-18T19:43:26.846Z,51.8
2017-07-18T19:44:28.253Z,52.3
2017-07-18T19:45:29.731Z,51.9
2017-07-18T19:46:31.192Z,51.1
2017-07-18T19:47:32.710Z,50.8
2017-07-18T19:48:34.114Z,50.1
2017-07-18T19:49:35.592Z,50.5
2017-07-18T19:50:37.001Z,50.8
2017-07-18T19:51:38.470Z,51.9
2017-07-18T19:52:39.874Z,51.6
2017-07-18T19:53:41.301Z,52.2
2017-07-18T19:54:42.791Z,52.3
2017-07-18T19:55:44.214Z,51.8
2017-07-18T19:56:45.618Z,52.6
2017-07-18T19:57:47.120Z,50.9
2017-07-18T19:58:48.525Z,51.9
2017-07-18T19:59:49.934Z,51.8
2017-07-18T20:00:51.432Z,51.4
2017-07-18T20:01:52.837Z,52.2
2017-07-18T20:02:54.303Z,52.5
2017-07-18T20:03:55.754Z,52.7
2017-07-18T20:04:57.162Z,53.0
2017-07-18T20:05:58.635Z,53.0
2017-07-18T20:07:00.041Z,52.2
2017-07-18T20:08:01.515Z,52.9
2017-07-18T20:09:02.916Z,52.6
2017-07-18T20:10:04.327Z,53.5
2017-07-18T20:11:05.734Z,52.6
2017-07-18T20:12:07.138Z,51.5
2017-07-18T20:13:08.546Z,52.0
2017-07-18T20:14:10.056Z,52.3
2017-07-18T20:15:11.456Z,52.6
2017-07-18T20:16:12.934Z,53.2
2017-07-18T20:17:14.337Z,52.6
2017-07-18T20:18:15.815Z,52.0
2017-07-18T20:19:17.219Z,53.3
2017-07-18T20:20:18.634Z,53.2
2017-07-18T20:21:20.139Z,53.1
2017-07-18T20:22:21.541Z,53.7
2017-07-18T20:23:22.942Z,52.8
2017-07-18T20:24:24.461Z,53.0
2017-07-18T20:25:25.863Z,52.0
2017-07-18T20:26:27.341Z,52.2
2017-07-18T20:27:28.751Z,53.0
2017-07-18T20:28:30.220Z,53.2
2017-07-18T20:29:31.622Z,54.1
2017-07-18T20:30:33.022Z,53.8
2017-07-18T20:31:34.540Z,52.8
2017-07-18T20:32:35.943Z,53.4
2017-07-18T20:33:37.349Z,53.5
2017-07-18T20:34:39.792Z,54.3
2017-07-18T20:35:41.199Z,53.9
2017-07-18T20:36:42.662Z,54.4
2017-07-18T20:37:44.067Z,53.2
2017-07-18T20:38:45.550Z,53.4
2017-07-18T20:39:46.957Z,53.4
2017-07-18T20:40:48.362Z,53.7
2017-07-18T20:41:49.884Z,53.0
2017-07-18T20:42:51.299Z,54.0
2017-07-18T20:43:52.697Z,53.8
2017-07-18T20:44:54.185Z,53.2
2017-07-18T20:45:55.590Z,53.8
2017-07-18T20:46:56.990Z,54.2
2017-07-18T20:47:58.506Z,54.1
2017-07-18T20:48:59.913Z,54.1
2017-07-18T20:50:01.317Z,54.1
2017-07-18T20:51:02.844Z,53.9
2017-07-18T20:52:04.247Z,53.9
2017-07-18T20:53:05.652Z,54.2
2017-07-18T20:54:07.166Z,54.5
2017-07-18T20:55:08.565Z,55.1
2017-07-18T20:56:09.977Z,55.3
2017-07-18T20:57:11.468Z,55.8
2017-07-18T20:58:12.876Z,55.3
2017-07-18T20:59:14.274Z,55.8
2017-07-18T21:00:15.808Z,55.5
2017-07-18T21:01:22.164Z,54.9
2017-07-18T21:02:23.585Z,55.0
2017-07-18T21:03:24.996Z,55.1
2017-07-18T21:04:26.476Z,55.1
2017-07-18T21:05:27.892Z,55.5
2017-07-18T21:06:29.292Z,55.3
2017-07-18T21:07:30.850Z,55.2
2017-07-18T21:08:32.254Z,55.7
2017-07-18T21:09:33.655Z,55.3
2017-07-18T21:10:35.127Z,55.8
2017-07-18T21:11:36.723Z,55.3
2017-07-18T21:12:38.994Z,56.3
2017-07-18T21:13:40.394Z,56.0
2017-07-18T21:14:41.914Z,55.7
2017-07-18T21:15:43.327Z,55.5
2017-07-18T21:16:44.810Z,56.7
2017-07-18T21:17:46.227Z,55.5
2017-07-18T21:18:47.859Z,55.9
2017-07-18T21:19:49.278Z,56.5
2017-07-18T21:20:50.739Z,56.3
2017-07-18T21:21:52.145Z,56.2
2017-07-18T21:22:53.619Z,56.1
2017-07-18T21:23:55.021Z,56.5
2017-07-18T21:24:56.442Z,56.5
2017-07-18T21:25:57.939Z,56.5
2017-07-18T21:26:59.350Z,56.8
2017-07-18T21:28:00.755Z,57.0
2017-07-18T21:29:02.281Z,57.7
2017-07-18T21:30:03.679Z,57.4
2017-07-18T21:31:05.078Z,57.8
2017-07-18T21:32:06.600Z,58.0
2017-07-18T21:33:08.007Z,57.8
2017-07-18T21:34:09.410Z,57.9
2017-07-18T21:35:10.904Z,58.0
2017-07-18T21:36:12.307Z,58.4
2017-07-18T21:37:13.707Z,59.1
2017-07-18T21:38:15.216Z,59.2
2017-07-18T21:39:16.652Z,59.3
2017-07-18T21:40:18.058Z,59.2
2017-07-18T21:41:19.564Z,59.1
2017-07-18T21:42:20.994Z,58.7
2017-07-18T21:43:22.396Z,59.6
2017-07-18T21:44:23.864Z,59.7
2017-07-18T21:45:25.271Z,59.0
2017-07-18T21:46:26.676Z,58.7
2017-07-18T21:47:28.199Z,58.8
2017-07-18T21:48:29.637Z,58.6
2017-07-18T21:49:31.037Z,58.5
2017-07-18T21:50:32.506Z,59.0
2017-07-18T21:51:33.911Z,59.2
2017-07-18T21:52:35.316Z,58.8
2017-07-18T21:53:36.827Z,59.8
2017-07-18T21:54:38.242Z,59.4
2017-07-18T21:55:39.649Z,59.2
2017-07-18T21:56:41.148Z,59.2
2017-07-18T21:57:42.550Z,59.1
2017-07-18T21:58:43.956Z,59.2
2017-07-18T21:59:45.470Z,59.0
2017-07-18T22:00:46.878Z,58.8
2017-07-18T22:01:48.276Z,59.4
2017-07-18T22:02:49.805Z,59.1
2017-07-18T22:03:51.196Z,59.2
2017-07-18T22:04:52.608Z,59.4
2017-07-18T22:05:55.034Z,59.6
2017-07-18T22:06:56.438Z,59.6
2017-07-18T22:07:57.844Z,59.8
2017-07-18T22:08:59.355Z,59.6
2017-07-18T22:10:00.756Z,60.1
2017-07-18T22:11:02.155Z,59.7
2017-07-18T22:12:03.573Z,60.0
2017-07-18T22:13:04.981Z,60.0
2017-07-18T22:14:06.454Z,60.1